sensor_id;sensor_type;location;lat;lon;timestamp;pressure;altitude;pressure_sealevel;temperature;humidity
11049;BME280;5577;42.706;23.160;2023-02-18T00:02:16;94834.88;;;6.67;54.19
11049;BME280;5577;42.706;23.160;2023-02-18T00:05:00;94836.41;;;6.68;53.47
11049;BME280;5577;42.706;23.160;2023-02-18T00:07:44;94834.50;;;6.99;52.12
11049;BME280;5577;42.706;23.160;2023-02-18T00:10:28;94833.25;;;6.88;53.27
11049;BME280;5577;42.706;23.160;2023-02-18T00:13:12;94824.16;;;6.63;54.06
11049;BME280;5577;42.706;23.160;2023-02-18T00:16:01;94823.00;;;6.86;52.87
11049;BME280;5577;42.706;23.160;2023-02-18T00:18:45;94820.94;;;6.66;54.02
11049;BME280;5577;42.706;23.160;2023-02-18T00:21:29;94825.00;;;6.42;54.47
11049;BME280;5577;42.706;23.160;2023-02-18T00:24:15;94810.03;;;6.51;53.86
11049;BME280;5577;42.706;23.160;2023-02-18T00:26:59;94802.09;;;6.42;54.18
11049;BME280;5577;42.706;23.160;2023-02-18T00:29:43;94794.06;;;6.39;54.40
11049;BME280;5577;42.706;23.160;2023-02-18T00:32:27;94793.75;;;6.40;54.25
11049;BME280;5577;42.706;23.160;2023-02-18T00:35:11;94783.09;;;6.45;53.81
11049;BME280;5577;42.706;23.160;2023-02-18T00:37:55;94780.84;;;7.42;50.34
11049;BME280;5577;42.706;23.160;2023-02-18T00:40:39;94767.44;;;7.98;48.87
11049;BME280;5577;42.706;23.160;2023-02-18T00:43:24;94781.28;;;7.70;50.39
11049;BME280;5577;42.706;23.160;2023-02-18T00:46:09;94783.75;;;7.32;50.81
11049;BME280;5577;42.706;23.160;2023-02-18T00:48:54;94787.94;;;7.25;50.87
11049;BME280;5577;42.706;23.160;2023-02-18T00:51:38;94787.03;;;7.38;50.32
11049;BME280;5577;42.706;23.160;2023-02-18T00:54:22;94769.88;;;8.29;47.60
11049;BME280;5577;42.706;23.160;2023-02-18T00:57:06;94774.72;;;8.94;45.92
11049;BME280;5577;42.706;23.160;2023-02-18T00:59:50;94765.66;;;9.03;45.37
11049;BME280;5577;42.706;23.160;2023-02-18T01:02:34;94770.19;;;9.23;44.91
11049;BME280;5577;42.706;23.160;2023-02-18T01:05:20;94756.97;;;9.23;44.78
11049;BME280;5577;42.706;23.160;2023-02-18T01:08:05;94773.63;;;9.15;44.53
11049;BME280;5577;42.706;23.160;2023-02-18T01:10:56;94768.03;;;8.96;45.11
11049;BME280;5577;42.706;23.160;2023-02-18T01:13:40;94769.44;;;8.94;45.33
11049;BME280;5577;42.706;23.160;2023-02-18T01:16:25;94770.59;;;8.84;45.28
11049;BME280;5577;42.706;23.160;2023-02-18T01:19:09;94760.28;;;8.91;44.77
11049;BME280;5577;42.706;23.160;2023-02-18T01:21:53;94760.50;;;8.77;45.37
11049;BME280;5577;42.706;23.160;2023-02-18T01:24:37;94764.13;;;8.27;46.97
11049;BME280;5577;42.706;23.160;2023-02-18T01:27:21;94768.09;;;7.87;48.54
11049;BME280;5577;42.706;23.160;2023-02-18T01:30:06;94764.66;;;7.95;47.81
11049;BME280;5577;42.706;23.160;2023-02-18T01:32:51;94772.31;;;7.62;49.10
11049;BME280;5577;42.706;23.160;2023-02-18T01:35:40;94765.00;;;7.25;50.33
11049;BME280;5577;42.706;23.160;2023-02-18T01:38:24;94764.22;;;6.99;51.07
11049;BME280;5577;42.706;23.160;2023-02-18T01:41:08;94766.03;;;6.82;51.71
11049;BME280;5577;42.706;23.160;2023-02-18T01:44:20;94775.75;;;6.64;52.47
11049;BME280;5577;42.706;23.160;2023-02-18T01:47:04;94775.03;;;6.42;53.18
11049;BME280;5577;42.706;23.160;2023-02-18T01:49:51;94773.13;;;6.34;53.33
11049;BME280;5577;42.706;23.160;2023-02-18T01:52:36;94782.75;;;6.38;53.50
11049;BME280;5577;42.706;23.160;2023-02-18T01:55:20;94789.53;;;6.31;53.82
11049;BME280;5577;42.706;23.160;2023-02-18T01:58:04;94773.84;;;6.17;54.12
11049;BME280;5577;42.706;23.160;2023-02-18T02:00:49;94796.41;;;6.18;54.40
11049;BME280;5577;42.706;23.160;2023-02-18T02:03:33;94794.66;;;6.05;55.08
11049;BME280;5577;42.706;23.160;2023-02-18T02:06:19;94783.44;;;5.91;55.76
11049;BME280;5577;42.706;23.160;2023-02-18T02:09:07;94783.78;;;5.54;56.97
11049;BME280;5577;42.706;23.160;2023-02-18T02:15:43;94787.13;;;5.10;59.19
11049;BME280;5577;42.706;23.160;2023-02-18T02:18:56;94783.28;;;4.94;60.42
11049;BME280;5577;42.706;23.160;2023-02-18T02:22:16;94791.94;;;4.81;61.23
11049;BME280;5577;42.706;23.160;2023-02-18T02:40:46;94788.31;;;4.10;69.02
11049;BME280;5577;42.706;23.160;2023-02-18T02:46:46;94755.75;;;4.43;66.93
11049;BME280;5577;42.706;23.160;2023-02-18T02:52:32;94771.59;;;5.00;63.71
11049;BME280;5577;42.706;23.160;2023-02-18T02:55:17;94770.19;;;5.16;62.63
11049;BME280;5577;42.706;23.160;2023-02-18T02:58:01;94782.34;;;5.12;62.61
11049;BME280;5577;42.706;23.160;2023-02-18T03:04:15;94790.91;;;5.18;61.84
11049;BME280;5577;42.706;23.160;2023-02-18T03:07:27;94789.22;;;5.22;61.68
11049;BME280;5577;42.706;23.160;2023-02-18T03:10:42;94785.28;;;5.46;59.86
11049;BME280;5577;42.706;23.160;2023-02-18T03:16:52;94774.66;;;5.51;59.34
11049;BME280;5577;42.706;23.160;2023-02-18T03:19:43;94771.50;;;5.63;58.16
11049;BME280;5577;42.706;23.160;2023-02-18T03:22:33;94692.88;;;5.00;58.46
11049;BME280;5577;42.706;23.160;2023-02-18T03:25:20;94784.66;;;5.49;59.04
11049;BME280;5577;42.706;23.160;2023-02-18T03:28:12;94803.97;;;5.31;60.19
11049;BME280;5577;42.706;23.160;2023-02-18T03:31:05;94824.22;;;5.17;61.13
11049;BME280;5577;42.706;23.160;2023-02-18T03:34:01;94828.94;;;5.07;61.82
11049;BME280;5577;42.706;23.160;2023-02-18T03:36:47;94832.34;;;4.94;62.68
11049;BME280;5577;42.706;23.160;2023-02-18T03:39:34;94837.69;;;4.89;62.80
11049;BME280;5577;42.706;23.160;2023-02-18T03:42:24;94789.63;;;4.66;63.04
11049;BME280;5577;42.706;23.160;2023-02-18T03:45:10;94832.63;;;4.92;62.41
11049;BME280;5577;42.706;23.160;2023-02-18T03:47:54;94825.44;;;4.98;62.17
11049;BME280;5577;42.706;23.160;2023-02-18T03:50:38;94834.56;;;5.00;61.97
11049;BME280;5577;42.706;23.160;2023-02-18T03:53:22;94844.28;;;5.00;62.12
11049;BME280;5577;42.706;23.160;2023-02-18T03:56:06;94844.00;;;5.01;61.99
11049;BME280;5577;42.706;23.160;2023-02-18T03:58:50;94842.63;;;5.04;61.90
11049;BME280;5577;42.706;23.160;2023-02-18T04:01:34;94842.75;;;4.99;62.14
11049;BME280;5577;42.706;23.160;2023-02-18T04:04:18;94862.84;;;4.90;62.91
11049;BME280;5577;42.706;23.160;2023-02-18T04:07:02;94829.63;;;4.85;63.55
11049;BME280;5577;42.706;23.160;2023-02-18T04:09:46;94834.78;;;4.77;64.08
11049;BME280;5577;42.706;23.160;2023-02-18T04:12:30;94835.34;;;4.60;65.09
11049;BME280;5577;42.706;23.160;2023-02-18T04:15:14;94830.00;;;4.52;65.76
11049;BME280;5577;42.706;23.160;2023-02-18T04:17:58;94831.44;;;4.44;66.28
11049;BME280;5577;42.706;23.160;2023-02-18T04:20:42;94835.72;;;4.40;66.72
11049;BME280;5577;42.706;23.160;2023-02-18T04:23:26;94814.16;;;4.43;65.69
11049;BME280;5577;42.706;23.160;2023-02-18T04:26:10;94796.00;;;4.33;65.68
11049;BME280;5577;42.706;23.160;2023-02-18T04:28:54;94807.59;;;4.59;64.77
11049;BME280;5577;42.706;23.160;2023-02-18T04:31:38;94803.59;;;4.62;64.67
11049;BME280;5577;42.706;23.160;2023-02-18T04:34:22;94806.72;;;4.77;63.25
11049;BME280;5577;42.706;23.160;2023-02-18T04:37:06;94803.69;;;4.84;62.77
11049;BME280;5577;42.706;23.160;2023-02-18T04:39:50;94811.84;;;4.82;62.84
11049;BME280;5577;42.706;23.160;2023-02-18T04:42:34;94809.25;;;4.55;64.78
11049;BME280;5577;42.706;23.160;2023-02-18T04:45:18;94813.69;;;4.41;65.80
11049;BME280;5577;42.706;23.160;2023-02-18T04:48:01;94803.13;;;4.33;66.88
11049;BME280;5577;42.706;23.160;2023-02-18T04:50:45;94805.91;;;4.23;67.55
11049;BME280;5577;42.706;23.160;2023-02-18T04:53:29;94807.06;;;4.17;68.91
11049;BME280;5577;42.706;23.160;2023-02-18T04:56:13;94811.22;;;4.18;69.13
11049;BME280;5577;42.706;23.160;2023-02-18T04:58:58;94817.72;;;4.07;71.97
11049;BME280;5577;42.706;23.160;2023-02-18T05:01:41;94815.09;;;4.07;70.96
11049;BME280;5577;42.706;23.160;2023-02-18T05:04:25;94830.06;;;4.20;70.48
11049;BME280;5577;42.706;23.160;2023-02-18T05:07:10;94825.41;;;4.30;69.62
11049;BME280;5577;42.706;23.160;2023-02-18T05:09:54;94834.16;;;4.39;69.52
11049;BME280;5577;42.706;23.160;2023-02-18T05:12:38;94820.31;;;4.07;71.13
11049;BME280;5577;42.706;23.160;2023-02-18T05:15:22;94829.03;;;4.02;71.99
11049;BME280;5577;42.706;23.160;2023-02-18T05:18:06;94797.53;;;3.94;71.27
11049;BME280;5577;42.706;23.160;2023-02-18T05:20:51;94795.03;;;4.16;71.47
11049;BME280;5577;42.706;23.160;2023-02-18T05:23:34;94795.25;;;4.46;67.75
11049;BME280;5577;42.706;23.160;2023-02-18T05:26:18;94770.47;;;4.66;64.36
11049;BME280;5577;42.706;23.160;2023-02-18T05:29:03;94808.81;;;5.02;62.81
11049;BME280;5577;42.706;23.160;2023-02-18T05:31:47;94807.63;;;5.08;62.48
11049;BME280;5577;42.706;23.160;2023-02-18T05:34:31;94804.06;;;5.04;63.69
11049;BME280;5577;42.706;23.160;2023-02-18T05:37:16;94797.72;;;5.05;63.53
11049;BME280;5577;42.706;23.160;2023-02-18T05:40:02;94799.06;;;5.16;63.57
11049;BME280;5577;42.706;23.160;2023-02-18T05:42:46;94811.09;;;5.17;63.50
11049;BME280;5577;42.706;23.160;2023-02-18T05:45:30;94819.88;;;5.13;63.85
11049;BME280;5577;42.706;23.160;2023-02-18T05:48:15;94804.44;;;5.11;62.24
11049;BME280;5577;42.706;23.160;2023-02-18T05:50:59;94826.22;;;5.34;61.61
11049;BME280;5577;42.706;23.160;2023-02-18T05:53:43;94823.22;;;5.27;63.47
11049;BME280;5577;42.706;23.160;2023-02-18T05:56:27;94825.00;;;5.18;62.39
11049;BME280;5577;42.706;23.160;2023-02-18T05:59:11;94831.56;;;5.42;60.52
11049;BME280;5577;42.706;23.160;2023-02-18T06:01:55;94846.09;;;5.62;59.61
11049;BME280;5577;42.706;23.160;2023-02-18T06:04:39;94824.91;;;5.80;58.30
11049;BME280;5577;42.706;23.160;2023-02-18T06:07:23;94823.88;;;5.81;59.68
11049;BME280;5577;42.706;23.160;2023-02-18T06:10:08;94820.63;;;5.84;60.29
11049;BME280;5577;42.706;23.160;2023-02-18T06:12:53;94808.34;;;5.93;58.11
11049;BME280;5577;42.706;23.160;2023-02-18T06:15:37;94818.72;;;6.21;56.46
11049;BME280;5577;42.706;23.160;2023-02-18T06:18:21;94803.28;;;6.28;56.32
11049;BME280;5577;42.706;23.160;2023-02-18T06:21:05;94814.66;;;6.45;56.24
11049;BME280;5577;42.706;23.160;2023-02-18T06:23:49;94804.16;;;6.54;56.86
11049;BME280;5577;42.706;23.160;2023-02-18T06:26:33;94811.56;;;6.43;58.33
11049;BME280;5577;42.706;23.160;2023-02-18T06:29:18;94818.13;;;6.32;58.98
11049;BME280;5577;42.706;23.160;2023-02-18T06:32:02;94815.03;;;6.30;58.57
11049;BME280;5577;42.706;23.160;2023-02-18T06:34:46;94816.34;;;6.41;58.07
11049;BME280;5577;42.706;23.160;2023-02-18T06:37:30;94818.38;;;6.44;56.71
11049;BME280;5577;42.706;23.160;2023-02-18T06:40:15;94820.25;;;6.52;57.81
11049;BME280;5577;42.706;23.160;2023-02-18T06:42:59;94809.38;;;6.45;55.60
11049;BME280;5577;42.706;23.160;2023-02-18T06:45:43;94820.47;;;6.73;54.59
11049;BME280;5577;42.706;23.160;2023-02-18T06:48:27;94789.47;;;7.94;48.72
11049;BME280;5577;42.706;23.160;2023-02-18T06:51:11;94813.31;;;8.14;49.95
11049;BME280;5577;42.706;23.160;2023-02-18T06:53:55;94814.41;;;8.22;49.02
11049;BME280;5577;42.706;23.160;2023-02-18T06:56:39;94815.66;;;8.07;49.30
11049;BME280;5577;42.706;23.160;2023-02-18T06:59:24;94771.31;;;7.92;48.87
11049;BME280;5577;42.706;23.160;2023-02-18T07:02:11;94816.56;;;8.11;49.86
11049;BME280;5577;42.706;23.160;2023-02-18T07:04:55;94818.28;;;8.16;49.02
11049;BME280;5577;42.706;23.160;2023-02-18T07:07:39;94814.28;;;8.10;50.28
11049;BME280;5577;42.706;23.160;2023-02-18T07:10:24;94808.84;;;7.89;50.99
11049;BME280;5577;42.706;23.160;2023-02-18T07:13:08;94788.22;;;8.00;49.72
11049;BME280;5577;42.706;23.160;2023-02-18T07:15:52;94795.34;;;8.08;49.35
11049;BME280;5577;42.706;23.160;2023-02-18T07:18:36;94789.28;;;8.24;49.78
11049;BME280;5577;42.706;23.160;2023-02-18T07:21:20;94779.94;;;8.18;49.16
11049;BME280;5577;42.706;23.160;2023-02-18T07:24:04;94784.00;;;8.07;49.61
11049;BME280;5577;42.706;23.160;2023-02-18T07:26:48;94794.72;;;8.28;49.41
11049;BME280;5577;42.706;23.160;2023-02-18T07:29:32;94784.88;;;8.37;49.02
11049;BME280;5577;42.706;23.160;2023-02-18T07:32:17;94793.81;;;8.07;50.20
11049;BME280;5577;42.706;23.160;2023-02-18T07:35:03;94749.34;;;7.63;50.96
11049;BME280;5577;42.706;23.160;2023-02-18T07:37:48;94809.47;;;7.95;51.64
11049;BME280;5577;42.706;23.160;2023-02-18T07:40:32;94806.66;;;8.08;50.52
11049;BME280;5577;42.706;23.160;2023-02-18T07:43:16;94807.38;;;8.43;47.81
11049;BME280;5577;42.706;23.160;2023-02-18T07:46:04;94811.75;;;8.76;47.23
11049;BME280;5577;42.706;23.160;2023-02-18T07:48:49;94827.59;;;9.06;47.23
11049;BME280;5577;42.706;23.160;2023-02-18T07:51:32;94818.97;;;9.26;47.42
11049;BME280;5577;42.706;23.160;2023-02-18T07:54:17;94799.41;;;9.47;47.28
11049;BME280;5577;42.706;23.160;2023-02-18T07:57:01;94816.66;;;9.86;46.53
11049;BME280;5577;42.706;23.160;2023-02-18T07:59:45;94808.97;;;9.93;46.65
11049;BME280;5577;42.706;23.160;2023-02-18T08:02:29;94807.88;;;9.94;45.63
11049;BME280;5577;42.706;23.160;2023-02-18T08:05:13;94806.72;;;10.03;46.66
11049;BME280;5577;42.706;23.160;2023-02-18T08:07:57;94812.94;;;10.19;46.39
11049;BME280;5577;42.706;23.160;2023-02-18T08:10:41;94807.34;;;10.21;45.99
11049;BME280;5577;42.706;23.160;2023-02-18T08:13:25;94813.06;;;10.02;45.94
11049;BME280;5577;42.706;23.160;2023-02-18T08:16:09;94804.06;;;10.03;43.61
11049;BME280;5577;42.706;23.160;2023-02-18T08:18:54;94794.47;;;10.31;40.88
11049;BME280;5577;42.706;23.160;2023-02-18T08:21:38;94810.97;;;10.73;39.94
11049;BME280;5577;42.706;23.160;2023-02-18T08:24:22;94808.88;;;10.90;40.62
11049;BME280;5577;42.706;23.160;2023-02-18T08:27:06;94792.13;;;10.98;41.54
11049;BME280;5577;42.706;23.160;2023-02-18T08:29:50;94790.22;;;10.99;40.19
11049;BME280;5577;42.706;23.160;2023-02-18T08:32:34;94738.16;;;10.79;39.30
11049;BME280;5577;42.706;23.160;2023-02-18T08:35:19;94769.25;;;11.18;39.83
11049;BME280;5577;42.706;23.160;2023-02-18T08:38:03;94768.03;;;11.27;39.17
11049;BME280;5577;42.706;23.160;2023-02-18T08:40:47;94758.00;;;11.60;38.30
11049;BME280;5577;42.706;23.160;2023-02-18T08:43:32;94770.28;;;11.65;37.40
11049;BME280;5577;42.706;23.160;2023-02-18T08:46:16;94777.13;;;11.66;36.76
11049;BME280;5577;42.706;23.160;2023-02-18T08:49:00;94774.84;;;11.92;36.89
11049;BME280;5577;42.706;23.160;2023-02-18T08:51:46;94772.94;;;11.93;36.48
11049;BME280;5577;42.706;23.160;2023-02-18T08:54:30;94742.34;;;11.83;37.77
11049;BME280;5577;42.706;23.160;2023-02-18T08:57:14;94776.34;;;12.21;38.02
11049;BME280;5577;42.706;23.160;2023-02-18T08:59:58;94774.75;;;12.32;38.04
11049;BME280;5577;42.706;23.160;2023-02-18T09:02:42;94762.41;;;12.39;36.62
11049;BME280;5577;42.706;23.160;2023-02-18T09:05:27;94776.66;;;12.78;36.31
11049;BME280;5577;42.706;23.160;2023-02-18T09:08:11;94786.53;;;13.08;35.67
11049;BME280;5577;42.706;23.160;2023-02-18T09:10:57;94781.72;;;13.14;35.76
11049;BME280;5577;42.706;23.160;2023-02-18T09:13:41;94772.41;;;13.39;36.35
11049;BME280;5577;42.706;23.160;2023-02-18T09:16:25;94767.00;;;14.08;35.53
11049;BME280;5577;42.706;23.160;2023-02-18T09:19:10;94777.91;;;14.86;34.51
11049;BME280;5577;42.706;23.160;2023-02-18T09:21:54;94780.69;;;15.16;32.35
11049;BME280;5577;42.706;23.160;2023-02-18T09:24:41;94773.59;;;15.27;31.13
11049;BME280;5577;42.706;23.160;2023-02-18T09:27:25;94755.03;;;15.08;31.48
11049;BME280;5577;42.706;23.160;2023-02-18T09:30:09;94753.50;;;15.33;30.91
11049;BME280;5577;42.706;23.160;2023-02-18T09:32:54;94744.22;;;16.12;30.40
11049;BME280;5577;42.706;23.160;2023-02-18T09:35:40;94731.13;;;17.27;28.90
11049;BME280;5577;42.706;23.160;2023-02-18T09:38:25;94743.63;;;17.70;28.70
11049;BME280;5577;42.706;23.160;2023-02-18T09:41:29;94732.59;;;17.82;28.04
11049;BME280;5577;42.706;23.160;2023-02-18T09:47:05;94761.53;;;19.85;25.83
11049;BME280;5577;42.706;23.160;2023-02-18T09:49:59;94750.50;;;19.02;26.15
11049;BME280;5577;42.706;23.160;2023-02-18T09:52:47;94759.31;;;18.89;26.22
11049;BME280;5577;42.706;23.160;2023-02-18T09:55:34;94742.34;;;16.96;27.95
11049;BME280;5577;42.706;23.160;2023-02-18T09:58:32;94699.47;;;18.29;26.90
11049;BME280;5577;42.706;23.160;2023-02-18T10:01:36;94732.50;;;18.89;25.87
11049;BME280;5577;42.706;23.160;2023-02-18T10:04:26;94737.78;;;18.43;26.38
11049;BME280;5577;42.706;23.160;2023-02-18T10:07:20;94735.91;;;18.65;26.58
11049;BME280;5577;42.706;23.160;2023-02-18T10:10:32;94734.41;;;19.27;26.26
11049;BME280;5577;42.706;23.160;2023-02-18T10:13:22;94726.63;;;19.82;25.32
11049;BME280;5577;42.706;23.160;2023-02-18T10:16:06;94709.34;;;20.55;24.89
11049;BME280;5577;42.706;23.160;2023-02-18T10:18:57;94728.97;;;21.10;24.28
11049;BME280;5577;42.706;23.160;2023-02-18T10:21:42;94741.28;;;18.75;25.94
11049;BME280;5577;42.706;23.160;2023-02-18T10:24:40;94740.41;;;18.19;27.01
11049;BME280;5577;42.706;23.160;2023-02-18T10:27:28;94740.53;;;19.45;25.89
11049;BME280;5577;42.706;23.160;2023-02-18T10:30:35;94733.31;;;21.81;23.52
11049;BME280;5577;42.706;23.160;2023-02-18T10:36:22;94718.00;;;21.31;24.82
11049;BME280;5577;42.706;23.160;2023-02-18T10:39:14;94723.81;;;22.33;23.67
11049;BME280;5577;42.706;23.160;2023-02-18T10:45:01;94720.28;;;22.06;23.11
11049;BME280;5577;42.706;23.160;2023-02-18T10:50:47;94709.41;;;21.43;24.89
11049;BME280;5577;42.706;23.160;2023-02-18T10:53:33;94713.72;;;21.77;25.24
11049;BME280;5577;42.706;23.160;2023-02-18T10:56:40;94706.66;;;21.87;24.57
11049;BME280;5577;42.706;23.160;2023-02-18T10:59:32;94687.69;;;20.14;26.25
11049;BME280;5577;42.706;23.160;2023-02-18T11:02:17;94708.34;;;18.96;27.48
11049;BME280;5577;42.706;23.160;2023-02-18T11:05:19;94704.16;;;21.29;25.77
11049;BME280;5577;42.706;23.160;2023-02-18T11:08:09;94695.16;;;21.05;25.50
11049;BME280;5577;42.706;23.160;2023-02-18T11:10:55;94690.28;;;19.38;27.13
11049;BME280;5577;42.706;23.160;2023-02-18T11:13:39;94702.59;;;18.62;27.82
11049;BME280;5577;42.706;23.160;2023-02-18T11:16:39;94692.97;;;18.37;28.47
11049;BME280;5577;42.706;23.160;2023-02-18T11:19:31;94693.31;;;18.32;27.84
11049;BME280;5577;42.706;23.160;2023-02-18T11:22:21;94671.88;;;19.37;26.96
11049;BME280;5577;42.706;23.160;2023-02-18T11:25:19;94671.38;;;20.46;26.16
11049;BME280;5577;42.706;23.160;2023-02-18T11:28:27;94665.53;;;21.05;25.48
11049;BME280;5577;42.706;23.160;2023-02-18T11:31:15;94643.47;;;21.21;25.86
11049;BME280;5577;42.706;23.160;2023-02-18T11:34:01;94640.69;;;21.98;24.80
11049;BME280;5577;42.706;23.160;2023-02-18T11:36:47;94634.41;;;21.41;25.17
11049;BME280;5577;42.706;23.160;2023-02-18T11:39:32;94635.97;;;21.72;25.29
11049;BME280;5577;42.706;23.160;2023-02-18T11:42:19;94629.88;;;20.47;26.51
11049;BME280;5577;42.706;23.160;2023-02-18T11:45:04;94627.78;;;20.68;26.73
11049;BME280;5577;42.706;23.160;2023-02-18T11:47:58;94626.41;;;21.68;26.04
11049;BME280;5577;42.706;23.160;2023-02-18T11:50:42;94625.38;;;20.33;26.99
11049;BME280;5577;42.706;23.160;2023-02-18T11:56:18;94614.22;;;20.82;27.29
11049;BME280;5577;42.706;23.160;2023-02-18T11:59:03;94602.63;;;20.89;27.06
11049;BME280;5577;42.706;23.160;2023-02-18T12:01:56;94586.09;;;20.87;27.29
11049;BME280;5577;42.706;23.160;2023-02-18T12:04:49;94598.00;;;20.89;26.93
11049;BME280;5577;42.706;23.160;2023-02-18T12:07:47;94600.91;;;20.10;27.22
11049;BME280;5577;42.706;23.160;2023-02-18T12:10:42;94592.00;;;19.58;28.49
11049;BME280;5577;42.706;23.160;2023-02-18T12:13:36;94589.25;;;19.72;28.46
11049;BME280;5577;42.706;23.160;2023-02-18T12:26:01;94579.56;;;20.44;27.75
11049;BME280;5577;42.706;23.160;2023-02-18T12:32:07;94575.38;;;22.14;26.22
11049;BME280;5577;42.706;23.160;2023-02-18T12:35:32;94576.81;;;22.91;24.88
11049;BME280;5577;42.706;23.160;2023-02-18T12:44:11;94551.81;;;20.57;25.81
11049;BME280;5577;42.706;23.160;2023-02-18T12:56:41;94546.50;;;21.24;25.59
11049;BME280;5577;42.706;23.160;2023-02-18T13:09:13;94549.19;;;23.26;23.75
11049;BME280;5577;42.706;23.160;2023-02-18T13:18:41;94550.06;;;21.48;25.17
11049;BME280;5577;42.706;23.160;2023-02-18T13:21:28;94549.97;;;20.88;25.98
11049;BME280;5577;42.706;23.160;2023-02-18T13:24:20;94560.34;;;20.49;27.20
11049;BME280;5577;42.706;23.160;2023-02-18T13:27:46;94550.59;;;19.56;27.64
11049;BME280;5577;42.706;23.160;2023-02-18T13:30:42;94524.44;;;18.63;28.72
11049;BME280;5577;42.706;23.160;2023-02-18T13:33:36;94558.13;;;18.82;29.06
11049;BME280;5577;42.706;23.160;2023-02-18T13:39:25;94563.84;;;17.86;30.27
11049;BME280;5577;42.706;23.160;2023-02-18T13:47:47;94557.22;;;17.41;31.51
11049;BME280;5577;42.706;23.160;2023-02-18T13:50:41;94560.25;;;17.29;31.88
11049;BME280;5577;42.706;23.160;2023-02-18T13:53:28;94526.97;;;17.27;31.90
11049;BME280;5577;42.706;23.160;2023-02-18T13:56:25;94538.44;;;17.17;33.07
11049;BME280;5577;42.706;23.160;2023-02-18T14:08:05;94535.28;;;16.36;36.68
11049;BME280;5577;42.706;23.160;2023-02-18T14:17:12;94548.19;;;15.76;37.13
11049;BME280;5577;42.706;23.160;2023-02-18T14:22:47;94547.13;;;15.48;38.34
11049;BME280;5577;42.706;23.160;2023-02-18T14:25:37;94537.25;;;15.52;38.47
11049;BME280;5577;42.706;23.160;2023-02-18T14:28:43;94550.31;;;15.60;38.20
11049;BME280;5577;42.706;23.160;2023-02-18T14:31:40;94545.59;;;15.47;38.55
11049;BME280;5577;42.706;23.160;2023-02-18T14:37:39;94542.66;;;15.59;38.95
11049;BME280;5577;42.706;23.160;2023-02-18T14:52:31;94543.34;;;15.92;38.58
11049;BME280;5577;42.706;23.160;2023-02-18T14:55:21;94539.38;;;15.72;39.08
11049;BME280;5577;42.706;23.160;2023-02-18T15:01:40;94546.06;;;15.23;39.57
11049;BME280;5577;42.706;23.160;2023-02-18T15:04:25;94535.94;;;15.02;39.93
11049;BME280;5577;42.706;23.160;2023-02-18T15:07:09;94537.22;;;14.86;40.28
11049;BME280;5577;42.706;23.160;2023-02-18T15:09:55;94541.66;;;14.75;40.48
11049;BME280;5577;42.706;23.160;2023-02-18T15:12:40;94544.47;;;14.56;41.19
11049;BME280;5577;42.706;23.160;2023-02-18T15:15:24;94542.88;;;14.51;41.31
11049;BME280;5577;42.706;23.160;2023-02-18T15:18:22;94544.31;;;14.45;41.48
11049;BME280;5577;42.706;23.160;2023-02-18T15:21:31;94542.94;;;14.28;41.88
11049;BME280;5577;42.706;23.160;2023-02-18T15:24:35;94542.53;;;14.04;42.35
11049;BME280;5577;42.706;23.160;2023-02-18T15:27:22;94533.63;;;13.93;42.80
11049;BME280;5577;42.706;23.160;2023-02-18T15:33:10;94527.84;;;13.65;43.27
11049;BME280;5577;42.706;23.160;2023-02-18T15:36:04;94539.88;;;13.59;43.33
11049;BME280;5577;42.706;23.160;2023-02-18T15:38:49;94529.00;;;13.45;43.94
11049;BME280;5577;42.706;23.160;2023-02-18T15:41:33;94529.28;;;13.40;43.61
11049;BME280;5577;42.706;23.160;2023-02-18T15:44:26;94525.31;;;13.30;43.82
11049;BME280;5577;42.706;23.160;2023-02-18T15:47:11;94518.59;;;13.17;43.99
11049;BME280;5577;42.706;23.160;2023-02-18T15:49:58;94520.16;;;12.99;44.27
11049;BME280;5577;42.706;23.160;2023-02-18T15:52:44;94516.09;;;12.86;44.67
11049;BME280;5577;42.706;23.160;2023-02-18T15:55:37;94505.75;;;12.81;44.35
11049;BME280;5577;42.706;23.160;2023-02-18T15:58:26;94524.88;;;12.71;44.83
11049;BME280;5577;42.706;23.160;2023-02-18T16:01:25;94511.25;;;12.54;45.57
11049;BME280;5577;42.706;23.160;2023-02-18T16:04:12;94507.53;;;12.39;45.51
11049;BME280;5577;42.706;23.160;2023-02-18T16:24:25;94499.13;;;12.03;46.66
11049;BME280;5577;42.706;23.160;2023-02-18T16:27:15;94504.03;;;12.01;46.77
11049;BME280;5577;42.706;23.160;2023-02-18T16:30:35;94465.13;;;11.74;46.95
11049;BME280;5577;42.706;23.160;2023-02-18T16:33:13;94493.50;;;11.89;47.49
11049;BME280;5577;42.706;23.160;2023-02-18T16:35:57;94504.63;;;11.79;47.92
11049;BME280;5577;42.706;23.160;2023-02-18T16:38:43;94505.09;;;11.65;48.22
11049;BME280;5577;42.706;23.160;2023-02-18T16:41:28;94510.44;;;11.53;48.72
11049;BME280;5577;42.706;23.160;2023-02-18T16:44:12;94467.84;;;11.15;49.36
11049;BME280;5577;42.706;23.160;2023-02-18T16:46:57;94505.97;;;11.26;49.73
11049;BME280;5577;42.706;23.160;2023-02-18T16:49:43;94511.19;;;11.22;49.88
11049;BME280;5577;42.706;23.160;2023-02-18T16:52:28;94495.16;;;11.03;50.04
11049;BME280;5577;42.706;23.160;2023-02-18T16:55:17;94517.22;;;11.07;50.46
11049;BME280;5577;42.706;23.160;2023-02-18T16:58:02;94510.19;;;10.99;50.75
11049;BME280;5577;42.706;23.160;2023-02-18T17:00:47;94514.31;;;10.97;50.73
11049;BME280;5577;42.706;23.160;2023-02-18T17:03:32;94504.41;;;10.82;50.78
11049;BME280;5577;42.706;23.160;2023-02-18T17:06:16;94509.53;;;11.02;50.29
11049;BME280;5577;42.706;23.160;2023-02-18T17:09:04;94518.97;;;11.15;49.88
11049;BME280;5577;42.706;23.160;2023-02-18T17:11:50;94519.81;;;11.19;49.81
11049;BME280;5577;42.706;23.160;2023-02-18T17:14:35;94516.47;;;11.07;50.21
11049;BME280;5577;42.706;23.160;2023-02-18T17:17:19;94515.53;;;11.15;49.96
11049;BME280;5577;42.706;23.160;2023-02-18T17:20:05;94512.41;;;11.25;49.67
11049;BME280;5577;42.706;23.160;2023-02-18T17:22:49;94514.44;;;11.31;49.44
11049;BME280;5577;42.706;23.160;2023-02-18T17:25:37;94508.56;;;11.22;50.06
11049;BME280;5577;42.706;23.160;2023-02-18T17:28:21;94505.63;;;11.27;49.67
11049;BME280;5577;42.706;23.160;2023-02-18T17:31:09;94502.13;;;11.23;49.76